Time;durP1;ratioP1;P1;durP2;ratioP2;P2;SDS_P1;SDS_P2;PMS_P1;PMS_P2;Temp;Humidity;BMP_temperature;BMP_pressure;BME280_temperature;BME280_humidity;BME280_pressure;Samples;Min_cycle;Max_cycle;Signal;HPM_P1;HPM_P2
2023/10/31 00:01:34;;;;;;;3.03;1.80;;;22.80;55.30;;;;;;5037196;28;20125;-65
2023/10/31 00:04:00;;;;;;;3.25;2.05;;;22.80;55.30;;;;;;5038714;28;20025;-64
2023/10/31 00:06:26;;;;;;;2.53;1.70;;;22.80;55.30;;;;;;5039509;28;20033;-65
2023/10/31 00:08:51;;;;;;;2.88;1.85;;;22.80;55.30;;;;;;5039834;28;20122;-65
2023/10/31 00:11:17;;;;;;;3.00;2.00;;;22.80;55.30;;;;;;5040508;28;20053;-64
2023/10/31 00:13:43;;;;;;;2.50;1.80;;;22.70;55.30;;;;;;5037890;28;20477;-64
2023/10/31 00:16:08;;;;;;;2.95;2.00;;;22.70;55.30;;;;;;5038522;28;21003;-65
2023/10/31 00:18:34;;;;;;;2.60;1.85;;;22.70;55.30;;;;;;5039047;28;20030;-65
2023/10/31 00:21:00;;;;;;;2.70;1.88;;;22.70;55.40;;;;;;5037158;28;20029;-65
2023/10/31 00:23:25;;;;;;;2.90;2.00;;;22.70;55.40;;;;;;5040646;28;20036;-66
2023/10/31 00:25:51;;;;;;;2.63;1.70;;;22.70;55.40;;;;;;5040816;28;20032;-66
2023/10/31 00:28:17;;;;;;;2.92;1.88;;;22.70;55.50;;;;;;5039026;28;20124;-66
2023/10/31 00:30:42;;;;;;;2.35;1.60;;;22.70;55.50;;;;;;5039990;28;20043;-64
2023/10/31 00:33:08;;;;;;;2.60;1.70;;;22.70;55.50;;;;;;5036343;28;20084;-65
2023/10/31 00:35:33;;;;;;;2.88;1.73;;;22.70;55.50;;;;;;5036840;28;20033;-64
2023/10/31 00:37:59;;;;;;;2.55;1.60;;;22.70;55.50;;;;;;5039678;28;20112;-65
2023/10/31 00:40:25;;;;;;;2.55;1.70;;;22.70;55.50;;;;;;5038142;28;20060;-65
2023/10/31 00:42:50;;;;;;;2.80;1.67;;;22.60;55.50;;;;;;5038994;28;20043;-65
2023/10/31 00:45:16;;;;;;;2.72;1.77;;;22.60;55.50;;;;;;5039757;28;20036;-65
2023/10/31 00:47:41;;;;;;;2.92;1.80;;;22.60;55.50;;;;;;5037211;28;20029;-64
2023/10/31 00:50:08;;;;;;;2.28;1.50;;;22.60;55.50;;;;;;5038435;28;20045;-66
2023/10/31 00:52:34;;;;;;;2.88;1.70;;;22.60;55.50;;;;;;5040414;28;20056;-65
2023/10/31 00:55:00;;;;;;;2.70;1.98;;;22.60;55.50;;;;;;5036450;28;20064;-64
2023/10/31 00:57:25;;;;;;;2.63;1.55;;;22.60;55.50;;;;;;5037367;28;20048;-64
2023/10/31 00:59:51;;;;;;;2.45;1.60;;;22.60;55.50;;;;;;5038810;28;20426;-64
2023/10/31 01:02:16;;;;;;;2.40;1.35;;;22.60;55.50;;;;;;5038756;28;20075;-64
2023/10/31 01:04:42;;;;;;;3.42;1.63;;;22.50;55.50;;;;;;5037070;28;20030;-64
2023/10/31 01:07:11;;;;;;;2.47;1.73;;;22.60;55.60;;;;;;5035214;28;20461;-65
2023/10/31 01:09:37;;;;;;;3.38;1.73;;;22.50;55.50;;;;;;5036291;28;20058;-64
2023/10/31 01:12:03;;;;;;;2.33;1.60;;;22.50;55.60;;;;;;5039387;28;20527;-65
2023/10/31 01:14:28;;;;;;;2.28;1.55;;;22.50;55.50;;;;;;5038776;28;20036;-64
2023/10/31 01:16:54;;;;;;;3.13;1.70;;;22.50;55.60;;;;;;5039488;28;20033;-65
2023/10/31 01:19:20;;;;;;;2.15;1.48;;;22.50;55.60;;;;;;5037984;28;20394;-64
2023/10/31 01:21:45;;;;;;;2.60;1.70;;;22.50;55.60;;;;;;5038287;28;20033;-65
2023/10/31 01:24:11;;;;;;;2.42;1.50;;;22.50;55.60;;;;;;5040231;28;20478;-65
2023/10/31 01:26:36;;;;;;;2.67;1.50;;;22.50;55.60;;;;;;5037810;28;20481;-65
2023/10/31 01:29:02;;;;;;;2.42;1.40;;;22.50;55.60;;;;;;5038555;28;20040;-65
2023/10/31 01:31:28;;;;;;;2.47;1.70;;;22.50;55.60;;;;;;5038716;28;20029;-65
2023/10/31 01:33:53;;;;;;;1.75;1.20;;;22.50;55.60;;;;;;5036069;28;20032;-65
2023/10/31 01:36:23;;;;;;;1.85;1.38;;;22.40;55.60;;;;;;5037524;28;20029;-65
2023/10/31 01:38:49;;;;;;;2.60;1.50;;;22.50;55.70;;;;;;5037432;28;20025;-64
2023/10/31 01:41:14;;;;;;;2.20;1.27;;;22.40;55.60;;;;;;5036993;28;20033;-65
2023/10/31 01:43:40;;;;;;;1.90;1.30;;;22.40;55.70;;;;;;5038627;28;20487;-65
2023/10/31 01:46:06;;;;;;;1.77;1.20;;;22.40;55.60;;;;;;5038363;28;20112;-65
2023/10/31 01:48:33;;;;;;;1.83;1.30;;;22.40;55.60;;;;;;5037204;28;20507;-65
2023/10/31 01:51:01;;;;;;;2.10;1.30;;;22.40;55.60;;;;;;5035324;28;20424;-67
2023/10/31 01:53:29;;;;;;;1.90;1.15;;;22.40;55.70;;;;;;5037967;28;20496;-67
2023/10/31 01:55:56;;;;;;;2.13;1.30;;;22.40;55.70;;;;;;5038691;28;20113;-67
2023/10/31 01:58:28;;;;;;;2.15;1.30;;;22.40;55.70;;;;;;5037318;28;20033;-67
2023/10/31 02:00:55;;;;;;;2.25;1.40;;;22.40;55.70;;;;;;5039167;28;20032;-66
2023/10/31 02:03:20;;;;;;;2.00;1.20;;;22.30;55.60;;;;;;5042076;28;20389;-66
2023/10/31 02:05:46;;;;;;;2.20;1.40;;;22.30;55.60;;;;;;5037300;28;20029;-64
2023/10/31 02:08:12;;;;;;;2.00;1.00;;;22.30;55.90;;;;;;5036502;28;20037;-64
2023/10/31 02:10:37;;;;;;;2.03;1.40;;;22.30;55.60;;;;;;5037764;28;20033;-65
2023/10/31 02:13:13;;;;;;;1.73;1.33;;;22.30;55.70;;;;;;5038719;28;20025;-64
2023/10/31 02:15:39;;;;;;;1.58;1.20;;;22.30;55.70;;;;;;5038839;28;20029;-64
2023/10/31 02:18:04;;;;;;;1.92;1.38;;;22.30;55.60;;;;;;5038627;28;20032;-64
2023/10/31 02:20:30;;;;;;;1.92;1.30;;;22.30;55.60;;;;;;5040072;28;20603;-64
2023/10/31 02:22:56;;;;;;;1.80;1.25;;;22.30;55.60;;;;;;5037734;28;20113;-64
2023/10/31 02:25:21;;;;;;;2.03;1.30;;;22.30;55.70;;;;;;5038072;28;20453;-64
2023/10/31 02:27:47;;;;;;;1.50;1.10;;;22.30;55.70;;;;;;5037460;28;20037;-64
2023/10/31 02:30:13;;;;;;;1.67;1.10;;;22.30;55.80;;;;;;5036825;28;20116;-65
2023/10/31 02:32:38;;;;;;;2.03;1.38;;;22.20;55.70;;;;;;5037354;28;20033;-64
2023/10/31 02:35:04;;;;;;;1.77;1.02;;;22.30;55.80;;;;;;5037872;28;20503;-64
2023/10/31 02:37:30;;;;;;;2.00;1.20;;;22.20;55.80;;;;;;5036636;28;20103;-64
2023/10/31 02:39:56;;;;;;;2.03;1.13;;;22.30;55.90;;;;;;5037779;28;20511;-65
2023/10/31 02:42:21;;;;;;;1.48;1.10;;;22.20;55.80;;;;;;5041080;28;20534;-65
2023/10/31 02:44:47;;;;;;;1.90;1.15;;;22.20;55.80;;;;;;5042392;28;20043;-64
2023/10/31 02:47:13;;;;;;;1.80;1.20;;;22.20;55.80;;;;;;5040827;28;20024;-64
2023/10/31 02:49:38;;;;;;;1.42;1.00;;;22.20;55.80;;;;;;5040626;28;20568;-65
2023/10/31 02:52:04;;;;;;;1.75;1.13;;;22.20;55.80;;;;;;5041169;28;20052;-64
2023/10/31 02:54:30;;;;;;;1.65;1.00;;;22.20;55.90;;;;;;5040780;28;20056;-64
2023/10/31 02:56:55;;;;;;;1.65;1.20;;;22.20;55.90;;;;;;5041205;28;20021;-64
2023/10/31 02:59:22;;;;;;;1.83;1.10;;;22.20;55.90;;;;;;5042191;28;20081;-65
2023/10/31 03:01:48;;;;;;;1.50;1.20;;;22.20;55.90;;;;;;5038170;28;20126;-64
2023/10/31 03:04:13;;;;;;;1.83;1.10;;;22.20;55.90;;;;;;5042597;28;20037;-65
2023/10/31 03:06:39;;;;;;;1.17;0.90;;;22.20;55.90;;;;;;5038923;28;20444;-64
2023/10/31 03:09:05;;;;;;;1.98;1.20;;;22.20;56.00;;;;;;5040935;28;20035;-67
2023/10/31 03:11:32;;;;;;;1.95;1.10;;;22.10;55.90;;;;;;5041960;28;20043;-67
2023/10/31 03:13:58;;;;;;;1.58;1.05;;;22.10;55.90;;;;;;5041515;28;20871;-67
2023/10/31 03:16:24;;;;;;;1.52;1.10;;;22.10;56.00;;;;;;5041049;28;20084;-67
2023/10/31 03:18:50;;;;;;;1.67;1.10;;;22.10;56.00;;;;;;5043135;28;20047;-67
2023/10/31 03:21:16;;;;;;;2.00;1.10;;;22.20;56.10;;;;;;5042386;28;20017;-64
2023/10/31 03:23:43;;;;;;;1.98;1.33;;;22.10;56.00;;;;;;5040666;28;20128;-65
2023/10/31 03:26:09;;;;;;;1.83;1.20;;;22.10;56.00;;;;;;5039392;28;20170;-64
2023/10/31 03:28:34;;;;;;;1.67;1.08;;;22.10;56.00;;;;;;5039820;28;20037;-64
2023/10/31 03:31:00;;;;;;;1.90;1.20;;;22.10;56.00;;;;;;5038991;28;20132;-67
2023/10/31 03:33:27;;;;;;;1.30;1.02;;;22.10;56.00;;;;;;5040676;28;20021;-67
2023/10/31 03:35:53;;;;;;;1.55;1.02;;;22.10;56.00;;;;;;5040107;28;20417;-67
2023/10/31 03:38:19;;;;;;;1.55;1.00;;;22.10;56.00;;;;;;5038562;28;20033;-67
2023/10/31 03:40:45;;;;;;;1.77;1.10;;;22.10;56.00;;;;;;5038496;28;20021;-67
2023/10/31 03:43:10;;;;;;;1.52;1.08;;;22.10;56.00;;;;;;5039621;28;20033;-67
2023/10/31 03:45:36;;;;;;;1.52;1.17;;;22.10;56.00;;;;;;5041477;28;20025;-67
2023/10/31 03:48:02;;;;;;;1.80;1.10;;;22.10;56.00;;;;;;5040967;28;20029;-67
2023/10/31 03:50:27;;;;;;;1.88;1.10;;;22.10;56.10;;;;;;5038847;28;20036;-67
2023/10/31 03:52:53;;;;;;;1.50;1.00;;;22.10;56.10;;;;;;5038628;28;20453;-67
2023/10/31 03:55:18;;;;;;;1.48;0.98;;;22.00;56.00;;;;;;5039940;28;20484;-68
2023/10/31 03:57:44;;;;;;;1.50;1.00;;;22.00;56.10;;;;;;5040405;28;20430;-67
2023/10/31 04:00:11;;;;;;;1.08;0.82;;;22.00;56.00;;;;;;5039606;28;20044;-68
2023/10/31 04:02:37;;;;;;;1.50;1.00;;;22.10;56.10;;;;;;5039668;28;20029;-67
2023/10/31 04:05:03;;;;;;;1.25;0.90;;;22.00;56.10;;;;;;5039674;28;20052;-67
2023/10/31 04:07:28;;;;;;;1.10;0.85;;;22.00;56.10;;;;;;5038433;28;20203;-67
2023/10/31 04:09:54;;;;;;;1.10;0.90;;;22.00;56.10;;;;;;5072190;28;21057;-67
2023/10/31 04:12:20;;;;;;;1.40;1.00;;;22.00;56.10;;;;;;5038184;28;20013;-66
2023/10/31 04:14:46;;;;;;;1.33;0.93;;;22.00;56.10;;;;;;5039407;28;20022;-66
2023/10/31 04:17:11;;;;;;;1.23;0.93;;;22.00;56.10;;;;;;5040809;28;20035;-66
2023/10/31 04:19:37;;;;;;;1.38;0.98;;;22.00;56.10;;;;;;5040352;28;20025;-67
2023/10/31 04:22:03;;;;;;;1.30;1.05;;;22.00;56.10;;;;;;5038419;28;20029;-66
2023/10/31 04:24:28;;;;;;;2.63;1.10;;;22.00;56.10;;;;;;5037999;28;20063;-67
2023/10/31 04:26:54;;;;;;;1.55;1.10;;;22.00;56.10;;;;;;5038133;28;20025;-66
2023/10/31 04:29:20;;;;;;;1.20;0.90;;;22.00;56.10;;;;;;5039690;28;20021;-66
2023/10/31 04:31:45;;;;;;;1.13;0.90;;;22.00;56.20;;;;;;5039445;28;20029;-66
2023/10/31 04:34:11;;;;;;;1.83;1.13;;;22.00;56.10;;;;;;5038656;28;20029;-66
2023/10/31 04:36:37;;;;;;;1.55;0.98;;;22.00;56.10;;;;;;5038494;28;21784;-66
2023/10/31 04:39:02;;;;;;;1.60;1.10;;;21.90;56.10;;;;;;5037972;28;20071;-66
2023/10/31 04:41:28;;;;;;;1.45;0.90;;;22.00;56.20;;;;;;5040268;28;20462;-65
2023/10/31 04:43:54;;;;;;;1.42;0.90;;;21.90;56.10;;;;;;5039213;28;20118;-65
2023/10/31 04:46:19;;;;;;;1.40;1.00;;;21.90;56.20;;;;;;5038574;28;20083;-65
2023/10/31 04:48:45;;;;;;;1.23;0.93;;;21.90;56.20;;;;;;5038964;28;20144;-65
2023/10/31 04:51:11;;;;;;;1.38;1.00;;;21.90;56.20;;;;;;5037556;28;20026;-65
2023/10/31 04:53:36;;;;;;;1.20;1.00;;;21.90;56.20;;;;;;5037099;28;20448;-65
2023/10/31 04:56:02;;;;;;;1.60;1.00;;;21.90;56.20;;;;;;5040505;28;20025;-66
2023/10/31 04:58:28;;;;;;;1.08;0.90;;;21.90;56.20;;;;;;5040030;28;20099;-65
2023/10/31 05:00:53;;;;;;;1.38;1.00;;;21.90;56.20;;;;;;5036745;28;20044;-65
2023/10/31 05:03:19;;;;;;;1.38;0.93;;;21.90;56.20;;;;;;5038549;28;20030;-65
2023/10/31 05:05:44;;;;;;;1.35;0.88;;;21.90;56.20;;;;;;5039659;28;20033;-65
2023/10/31 05:08:10;;;;;;;2.10;1.13;;;21.90;56.20;;;;;;5035940;28;20037;-65
2023/10/31 05:10:35;;;;;;;1.08;0.90;;;21.90;56.20;;;;;;5039129;28;20140;-66
2023/10/31 05:13:04;;;;;;;1.05;0.90;;;21.90;56.20;;;;;;5040890;28;20124;-65
2023/10/31 05:15:29;;;;;;;1.65;1.27;;;21.90;56.30;;;;;;5038191;28;20064;-66
2023/10/31 05:17:55;;;;;;;1.77;1.00;;;21.80;56.20;;;;;;5039194;28;20132;-66
2023/10/31 05:20:21;;;;;;;1.27;1.00;;;21.90;56.30;;;;;;5037202;28;20099;-65
2023/10/31 05:22:46;;;;;;;1.20;0.90;;;21.90;56.30;;;;;;5037248;28;20025;-66
2023/10/31 05:25:12;;;;;;;1.20;0.93;;;21.90;56.30;;;;;;5039613;28;20048;-65
2023/10/31 05:27:39;;;;;;;1.35;0.90;;;21.90;56.30;;;;;;5038716;28;20032;-65
2023/10/31 05:30:05;;;;;;;1.35;0.90;;;21.90;56.30;;;;;;5036097;28;20061;-65
2023/10/31 05:32:31;;;;;;;1.20;0.80;;;21.80;56.20;;;;;;5038948;28;20021;-64
2023/10/31 05:34:56;;;;;;;1.13;0.90;;;21.80;56.30;;;;;;5039305;28;20036;-63
2023/10/31 05:37:22;;;;;;;0.95;0.85;;;21.80;56.20;;;;;;5038041;28;20021;-63
2023/10/31 05:39:48;;;;;;;1.02;0.80;;;21.80;56.20;;;;;;5038186;28;20029;-64
2023/10/31 05:42:14;;;;;;;1.13;0.82;;;21.80;56.30;;;;;;5039024;28;20029;-64
2023/10/31 05:44:40;;;;;;;1.23;0.90;;;21.80;56.30;;;;;;5039549;28;20473;-63
2023/10/31 05:47:05;;;;;;;1.80;1.10;;;21.80;56.30;;;;;;5037964;28;20040;-64
2023/10/31 05:49:31;;;;;;;1.38;1.00;;;21.80;56.30;;;;;;5039516;28;20099;-63
2023/10/31 05:51:56;;;;;;;1.20;0.90;;;21.80;56.30;;;;;;5037306;28;20040;-64
2023/10/31 05:54:22;;;;;;;1.48;0.90;;;21.80;56.30;;;;;;5038267;28;20041;-63
2023/10/31 05:56:47;;;;;;;1.35;0.90;;;21.80;56.30;;;;;;5039256;28;20568;-64
2023/10/31 05:59:13;;;;;;;0.93;0.80;;;21.80;56.30;;;;;;5040342;28;20040;-64
2023/10/31 06:01:39;;;;;;;1.20;0.90;;;21.80;56.40;;;;;;5039245;28;20056;-63
2023/10/31 06:04:05;;;;;;;1.33;0.88;;;21.80;56.40;;;;;;5039548;28;20029;-65
2023/10/31 06:06:37;;;;;;;1.00;0.80;;;21.80;56.60;;;;;;5037687;28;20021;-64
2023/10/31 06:09:03;;;;;;;1.42;1.00;;;21.80;56.40;;;;;;5037532;28;20508;-63
2023/10/31 06:11:28;;;;;;;1.15;0.82;;;21.80;56.40;;;;;;5038776;28;20140;-64
2023/10/31 06:13:54;;;;;;;1.00;0.80;;;21.80;56.40;;;;;;5037492;28;20079;-64
2023/10/31 06:16:20;;;;;;;1.02;0.80;;;21.80;56.40;;;;;;5038648;28;20036;-65
2023/10/31 06:18:46;;;;;;;1.38;0.88;;;21.80;56.40;;;;;;5040966;28;20031;-64
2023/10/31 06:21:12;;;;;;;1.00;0.80;;;21.80;56.40;;;;;;5040813;28;20119;-63
2023/10/31 06:23:38;;;;;;;1.23;0.80;;;21.80;56.50;;;;;;5042852;28;20059;-64
2023/10/31 06:26:04;;;;;;;1.00;0.90;;;21.70;56.40;;;;;;5042436;28;20029;-65
2023/10/31 06:28:30;;;;;;;0.90;0.73;;;21.80;56.50;;;;;;5041829;28;20032;-65
2023/10/31 06:30:55;;;;;;;1.08;0.77;;;21.70;56.50;;;;;;5041242;28;20528;-65
2023/10/31 06:33:21;;;;;;;1.08;0.80;;;21.80;56.50;;;;;;5041962;28;20021;-66
2023/10/31 06:35:47;;;;;;;1.45;0.90;;;21.70;56.70;;;;;;5041064;28;20500;-65
2023/10/31 06:38:13;;;;;;;1.60;1.00;;;21.70;56.50;;;;;;5040118;28;20041;-67
2023/10/31 06:40:38;;;;;;;1.08;0.80;;;21.70;56.50;;;;;;5040617;28;20033;-66
2023/10/31 06:43:04;;;;;;;1.48;0.90;;;21.70;56.50;;;;;;5041100;28;20042;-66
2023/10/31 06:45:29;;;;;;;1.02;0.80;;;21.70;56.50;;;;;;5041122;28;20464;-64
2023/10/31 06:47:55;;;;;;;1.38;0.80;;;21.70;56.50;;;;;;5041158;28;20029;-67
2023/10/31 06:50:21;;;;;;;0.80;0.70;;;21.70;56.50;;;;;;5040837;28;20443;-65
2023/10/31 06:52:46;;;;;;;1.23;0.80;;;21.70;56.50;;;;;;5040451;28;20100;-65
2023/10/31 06:55:12;;;;;;;1.58;0.98;;;21.70;56.50;;;;;;5040719;28;20049;-65
2023/10/31 06:57:38;;;;;;;1.08;0.70;;;21.70;56.50;;;;;;5041987;28;20052;-65
2023/10/31 07:00:08;;;;;;;1.27;0.90;;;21.70;56.50;;;;;;5039415;28;20033;-65
2023/10/31 07:02:35;;;;;;;1.20;0.90;;;21.70;56.50;;;;;;5041855;28;20124;-68
2023/10/31 07:05:00;;;;;;;1.40;0.82;;;21.70;56.50;;;;;;5038843;28;20028;-69
2023/10/31 07:07:26;;;;;;;1.30;0.80;;;21.70;56.60;;;;;;5039097;28;20041;-69
2023/10/31 07:09:51;;;;;;;1.30;0.80;;;21.70;56.60;;;;;;5040440;28;20518;-69
2023/10/31 07:12:17;;;;;;;2.53;0.70;;;21.70;56.60;;;;;;5039863;28;20029;-68
2023/10/31 07:14:43;;;;;;;2.47;0.90;;;21.70;56.60;;;;;;5040616;28;20025;-69
2023/10/31 07:17:09;;;;;;;1.65;0.80;;;21.70;56.60;;;;;;5039666;28;20020;-69
2023/10/31 07:19:34;;;;;;;1.20;0.80;;;21.70;56.60;;;;;;5040884;28;20029;-69
2023/10/31 07:22:00;;;;;;;0.90;0.70;;;21.70;56.60;;;;;;5039623;28;20104;-69
2023/10/31 07:24:27;;;;;;;1.23;0.80;;;21.70;56.70;;;;;;5038935;28;20084;-68
2023/10/31 07:26:53;;;;;;;1.38;0.73;;;21.70;56.60;;;;;;5039658;28;20037;-69
2023/10/31 07:29:19;;;;;;;1.42;0.90;;;21.70;56.60;;;;;;5039547;28;20025;-69
2023/10/31 07:31:45;;;;;;;1.70;0.77;;;21.70;56.70;;;;;;5039463;28;20461;-69
2023/10/31 07:34:13;;;;;;;2.05;1.08;;;21.70;56.60;;;;;;5040835;28;20095;-69
2023/10/31 07:36:41;;;;;;;1.30;0.82;;;21.70;56.60;;;;;;5038556;28;20025;-69
2023/10/31 07:39:07;;;;;;;1.77;0.80;;;21.70;56.70;;;;;;5038665;28;20567;-69
2023/10/31 07:41:33;;;;;;;1.67;0.93;;;21.60;56.60;;;;;;5042772;28;20056;-66
2023/10/31 07:43:58;;;;;;;1.63;0.80;;;21.70;56.70;;;;;;5039997;28;20021;-66
2023/10/31 07:46:24;;;;;;;1.63;0.90;;;21.60;56.60;;;;;;5041609;28;20451;-66
2023/10/31 07:48:50;;;;;;;1.33;0.80;;;21.60;56.60;;;;;;5040295;28;20032;-67
2023/10/31 07:51:15;;;;;;;0.95;0.75;;;21.60;56.70;;;;;;5040295;28;20033;-67
2023/10/31 07:53:41;;;;;;;1.40;0.70;;;21.60;56.60;;;;;;5040671;28;20061;-66
2023/10/31 07:56:17;;;;;;;0.98;0.88;;;21.60;56.60;;;;;;5038719;28;20033;-64
2023/10/31 07:58:43;;;;;;;1.25;0.80;;;21.60;56.60;;;;;;5038913;28;20388;-65
2023/10/31 08:01:10;;;;;;;1.33;0.90;;;21.60;56.70;;;;;;5039429;28;20030;-64
2023/10/31 08:03:37;;;;;;;1.58;0.80;;;21.60;56.60;;;;;;5037853;28;20125;-63
2023/10/31 08:06:04;;;;;;;1.35;0.85;;;21.60;56.60;;;;;;5038962;28;20043;-67
2023/10/31 08:08:29;;;;;;;1.20;0.80;;;21.60;56.70;;;;;;5036772;28;20076;-63
2023/10/31 08:10:57;;;;;;;1.15;0.70;;;21.60;56.70;;;;;;5056004;28;20079;-66
2023/10/31 08:13:22;;;;;;;0.95;0.70;;;21.60;56.60;;;;;;5039677;28;20026;-66
2023/10/31 08:15:48;;;;;;;1.00;0.70;;;21.60;56.70;;;;;;5039921;28;20518;-66
2023/10/31 08:18:13;;;;;;;1.45;0.90;;;21.60;56.70;;;;;;5039853;28;20038;-67
2023/10/31 08:20:39;;;;;;;1.05;0.70;;;21.60;56.70;;;;;;5039080;28;20393;-66
2023/10/31 08:23:05;;;;;;;1.35;0.82;;;21.60;56.70;;;;;;5037930;28;20029;-66
2023/10/31 08:25:30;;;;;;;1.20;0.90;;;21.60;56.70;;;;;;5040339;28;20029;-66
2023/10/31 08:27:56;;;;;;;1.00;0.75;;;21.60;56.70;;;;;;5041411;28;20666;-66
2023/10/31 08:30:22;;;;;;;1.30;0.90;;;21.60;56.70;;;;;;5038626;28;20028;-66
2023/10/31 08:32:48;;;;;;;1.15;0.80;;;21.60;56.70;;;;;;5039264;28;20029;-66
2023/10/31 08:35:13;;;;;;;1.85;0.80;;;21.60;56.70;;;;;;5039867;28;20481;-66
2023/10/31 08:37:39;;;;;;;1.58;0.90;;;21.60;56.70;;;;;;5036622;28;20018;-66
2023/10/31 08:40:05;;;;;;;0.88;0.70;;;21.60;56.70;;;;;;5038401;28;20060;-66
2023/10/31 08:42:31;;;;;;;2.15;0.77;;;21.60;56.80;;;;;;5038688;28;20561;-66
2023/10/31 08:44:57;;;;;;;1.45;0.85;;;21.60;56.80;;;;;;5039491;28;20135;-66
2023/10/31 08:47:23;;;;;;;1.00;0.80;;;21.60;57.00;;;;;;5039515;28;20117;-66
2023/10/31 08:49:49;;;;;;;1.27;0.80;;;21.60;57.00;;;;;;5037446;28;20112;-66
2023/10/31 08:52:15;;;;;;;1.25;0.80;;;21.60;57.00;;;;;;5045227;28;20930;-66
2023/10/31 08:54:40;;;;;;;1.08;0.70;;;21.60;57.00;;;;;;5037828;28;20065;-66
2023/10/31 08:57:06;;;;;;;1.90;0.80;;;21.60;57.00;;;;;;5037094;28;20021;-66
2023/10/31 08:59:32;;;;;;;1.10;0.80;;;21.60;57.00;;;;;;5038409;28;20496;-66
2023/10/31 09:01:57;;;;;;;1.20;0.90;;;21.60;57.00;;;;;;5038450;28;20040;-70
2023/10/31 09:04:23;;;;;;;1.58;0.70;;;21.60;57.00;;;;;;5038126;28;20422;-70
2023/10/31 09:06:48;;;;;;;1.10;0.80;;;21.60;57.00;;;;;;5038153;28;20094;-69
2023/10/31 09:09:15;;;;;;;2.45;1.02;;;21.60;57.00;;;;;;5039145;28;20366;-69
2023/10/31 09:11:40;;;;;;;1.40;0.80;;;21.60;57.00;;;;;;5038178;28;20104;-67
2023/10/31 09:14:06;;;;;;;2.17;0.95;;;21.50;57.00;;;;;;5038503;28;20105;-67
2023/10/31 09:16:31;;;;;;;1.40;0.80;;;21.60;57.10;;;;;;5039749;28;20074;-67
2023/10/31 09:18:57;;;;;;;1.02;0.80;;;21.50;57.00;;;;;;5037720;28;20026;-67
2023/10/31 09:21:23;;;;;;;1.15;0.70;;;21.60;57.10;;;;;;5038648;28;20029;-67
2023/10/31 09:23:48;;;;;;;1.98;0.80;;;21.60;57.10;;;;;;5035492;28;20026;-66
2023/10/31 09:26:14;;;;;;;1.20;0.75;;;21.50;57.10;;;;;;5038773;28;20034;-67
2023/10/31 09:28:41;;;;;;;1.50;0.90;;;21.50;57.10;;;;;;5040023;28;20033;-67
2023/10/31 09:31:07;;;;;;;1.42;0.88;;;21.60;57.20;;;;;;5036313;28;20459;-67
2023/10/31 09:33:33;;;;;;;1.35;0.80;;;21.50;57.10;;;;;;5039642;28;20113;-67
2023/10/31 09:35:58;;;;;;;1.52;0.70;;;21.60;57.20;;;;;;5040047;28;20032;-67
2023/10/31 09:38:24;;;;;;;1.17;0.80;;;21.50;57.10;;;;;;5038094;28;20546;-67
2023/10/31 09:40:50;;;;;;;1.45;0.80;;;21.50;57.10;;;;;;5038171;28;20063;-65
2023/10/31 09:43:16;;;;;;;0.98;0.70;;;21.60;57.20;;;;;;5039576;28;20029;-63
2023/10/31 09:45:42;;;;;;;1.52;0.80;;;21.50;57.10;;;;;;5038222;28;20112;-66
2023/10/31 09:48:07;;;;;;;2.00;1.00;;;21.50;57.10;;;;;;5036855;28;20092;-64
2023/10/31 09:50:34;;;;;;;1.15;0.73;;;21.50;57.10;;;;;;5039850;28;20166;-64
2023/10/31 09:53:00;;;;;;;1.27;0.70;;;21.50;57.10;;;;;;5039972;28;20037;-65
2023/10/31 09:55:26;;;;;;;1.85;0.80;;;21.60;57.10;;;;;;5039104;28;20330;-63
2023/10/31 09:57:51;;;;;;;3.25;0.90;;;21.50;57.10;;;;;;5040016;28;20071;-64
2023/10/31 10:00:18;;;;;;;1.20;0.82;;;21.50;57.10;;;;;;5040982;28;20030;-65
2023/10/31 10:02:43;;;;;;;1.38;0.80;;;21.50;57.10;;;;;;5042023;28;20549;-64
2023/10/31 10:05:10;;;;;;;2.05;0.90;;;21.50;57.10;;;;;;5040995;28;20037;-64
2023/10/31 10:07:35;;;;;;;2.00;0.82;;;21.50;57.10;;;;;;5043346;28;20029;-65
2023/10/31 10:10:01;;;;;;;2.42;0.90;;;21.50;57.10;;;;;;5039727;28;20116;-64
2023/10/31 10:12:27;;;;;;;2.05;0.85;;;21.50;57.10;;;;;;5041538;28;20370;-63
2023/10/31 10:14:53;;;;;;;1.38;0.70;;;21.50;57.10;;;;;;5041838;28;20026;-63
2023/10/31 10:17:23;;;;;;;1.13;0.70;;;21.50;57.10;;;;;;5040544;28;20493;-64
2023/10/31 10:20:08;;;;;;;1.40;0.93;;;21.50;57.10;;;;;;5042331;28;20119;-65
2023/10/31 10:22:39;;;;;;;1.38;0.90;;;21.50;57.10;;;;;;5044805;28;20602;-69
2023/10/31 10:25:07;;;;;;;1.65;0.80;;;21.50;57.10;;;;;;5040471;28;20061;-69
2023/10/31 10:27:32;;;;;;;2.47;0.98;;;21.50;57.10;;;;;;5041837;28;20033;-69
2023/10/31 10:29:58;;;;;;;1.25;0.80;;;21.50;57.10;;;;;;5042691;28;20035;-69
2023/10/31 10:32:24;;;;;;;1.20;0.80;;;21.50;57.10;;;;;;5041106;28;20163;-67
2023/10/31 10:34:49;;;;;;;1.35;0.80;;;21.50;57.00;;;;;;5043037;28;20037;-67
2023/10/31 10:37:17;;;;;;;1.25;0.80;;;21.50;57.00;;;;;;5040788;28;20029;-67
2023/10/31 10:39:49;;;;;;;1.55;0.80;;;21.50;57.00;;;;;;5073119;28;20029;-67
2023/10/31 10:42:18;;;;;;;1.30;0.70;;;21.50;57.10;;;;;;5041122;28;20389;-64
2023/10/31 10:44:45;;;;;;;1.42;0.88;;;21.50;57.00;;;;;;5042598;28;20073;-63
2023/10/31 10:47:12;;;;;;;1.95;0.80;;;21.50;57.10;;;;;;5043194;28;20490;-64
2023/10/31 10:49:41;;;;;;;1.40;0.80;;;21.50;57.00;;;;;;5040266;28;20493;-64
2023/10/31 10:52:10;;;;;;;1.10;0.73;;;21.50;57.50;;;;;;5043396;28;20124;-64
2023/10/31 10:54:40;;;;;;;1.48;0.88;;;21.50;57.10;;;;;;5039715;28;20533;-64
2023/10/31 10:57:16;;;;;;;1.23;0.70;;;21.50;57.10;;;;;;5038882;28;20132;-65
2023/10/31 10:59:43;;;;;;;1.23;0.80;;;21.60;57.10;;;;;;5039924;28;20385;-63
2023/10/31 11:02:10;;;;;;;1.58;0.80;;;21.50;57.10;;;;;;5039119;28;20155;-63
2023/10/31 11:04:37;;;;;;;1.38;0.85;;;21.60;57.20;;;;;;5040338;28;20426;-64
2023/10/31 11:07:02;;;;;;;1.15;0.68;;;21.50;57.10;;;;;;5040325;28;20059;-64
2023/10/31 11:09:31;;;;;;;1.13;0.77;;;21.50;57.10;;;;;;5041549;28;20086;-65
2023/10/31 11:11:58;;;;;;;1.50;0.70;;;21.60;57.20;;;;;;5041785;28;20880;-63
2023/10/31 11:14:25;;;;;;;1.38;0.70;;;21.50;57.10;;;;;;5041938;28;20022;-63
2023/10/31 11:16:59;;;;;;;1.42;0.82;;;21.50;57.10;;;;;;5040830;28;20078;-63
2023/10/31 11:19:27;;;;;;;1.33;0.70;;;21.50;57.10;;;;;;5038221;28;20036;-65
2023/10/31 11:22:05;;;;;;;1.90;1.00;;;21.60;57.20;;;;;;5042070;28;20037;-64
2023/10/31 11:24:36;;;;;;;1.80;0.88;;;21.60;57.30;;;;;;5037960;28;20875;-65
2023/10/31 11:27:05;;;;;;;1.08;0.73;;;21.50;57.10;;;;;;5039347;28;20037;-65
2023/10/31 11:29:32;;;;;;;1.30;0.70;;;21.50;57.10;;;;;;5039762;28;20032;-64
2023/10/31 11:31:58;;;;;;;1.23;0.80;;;21.50;57.20;;;;;;5038483;28;20029;-67
2023/10/31 11:34:27;;;;;;;1.55;0.90;;;21.50;57.20;;;;;;5038943;28;20025;-67
2023/10/31 11:36:53;;;;;;;;;;;21.50;57.20;;;;;;5042670;28;20029;-67
2023/10/31 11:39:26;;;;;;;1.92;0.90;;;21.50;57.20;;;;;;5042416;28;19905;-67
2023/10/31 11:41:55;;;;;;;2.28;1.15;;;21.50;57.20;;;;;;5041276;28;20036;-67
2023/10/31 11:44:27;;;;;;;1.23;0.73;;;21.50;57.20;;;;;;5041088;28;20040;-67
2023/10/31 11:46:53;;;;;;;2.10;0.90;;;21.50;57.20;;;;;;5039819;28;20038;-67
2023/10/31 11:49:50;;;;;;;1.35;0.88;;;21.50;57.20;;;;;;5040865;28;20030;-67
2023/10/31 11:52:18;;;;;;;1.05;0.75;;;21.50;57.30;;;;;;5040467;28;20036;-67
2023/10/31 11:54:44;;;;;;;1.52;0.90;;;21.50;57.20;;;;;;5041931;28;20051;-66
2023/10/31 11:57:10;;;;;;;1.70;0.90;;;21.50;57.20;;;;;;5038323;28;20436;-66
2023/10/31 11:59:37;;;;;;;1.20;0.80;;;21.50;57.30;;;;;;5040987;28;20385;-67
2023/10/31 12:02:13;;;;;;;2.80;1.00;;;21.50;57.30;;;;;;5040228;28;20053;-63
2023/10/31 12:04:39;;;;;;;1.70;0.93;;;21.50;57.30;;;;;;5041879;28;20036;-63
2023/10/31 12:07:05;;;;;;;1.83;0.90;;;21.50;57.30;;;;;;5041378;28;20568;-63
2023/10/31 12:09:31;;;;;;;1.75;1.00;;;21.50;57.30;;;;;;5039050;28;20120;-63
2023/10/31 12:11:56;;;;;;;1.80;1.00;;;21.50;57.30;;;;;;5040369;28;20045;-65
2023/10/31 12:14:22;;;;;;;2.45;1.00;;;21.60;57.40;;;;;;5036403;28;20021;-64
2023/10/31 12:16:47;;;;;;;2.28;1.00;;;21.50;57.40;;;;;;5037654;28;20032;-63
2023/10/31 12:19:13;;;;;;;1.85;0.88;;;21.50;57.40;;;;;;5040826;28;20025;-64
2023/10/31 12:21:49;;;;;;;1.90;1.02;;;21.60;57.40;;;;;;5039888;28;20550;-64
2023/10/31 12:24:17;;;;;;;2.08;1.00;;;21.60;57.40;;;;;;5039252;28;20055;-64
2023/10/31 12:26:44;;;;;;;1.88;1.00;;;21.60;57.40;;;;;;5036778;28;20474;-64
2023/10/31 12:29:15;;;;;;;2.40;1.05;;;21.50;57.40;;;;;;5039662;28;20032;-63
2023/10/31 12:31:52;;;;;;;2.40;1.10;;;21.50;57.40;;;;;;5041363;28;20026;-63
2023/10/31 12:34:22;;;;;;;2.08;1.00;;;21.50;57.40;;;;;;5040443;28;20030;-64
2023/10/31 12:36:51;;;;;;;2.00;1.10;;;21.60;57.40;;;;;;5039719;28;20027;-65
2023/10/31 12:39:18;;;;;;;2.65;1.10;;;21.50;57.40;;;;;;5039724;28;20025;-63
2023/10/31 12:41:44;;;;;;;2.75;1.20;;;21.60;57.50;;;;;;5038027;28;20034;-64
2023/10/31 12:44:13;;;;;;;2.03;1.10;;;21.60;57.50;;;;;;5039354;28;20465;-63